WZZ529A LUKK-EPMO
Flight info
| Callsign | WZZ529A |
|---|---|
| Flight time | N/A |
| Altitude | 36000 |
| Route | NUNTA DCT SAT DCT KENIN DCT UREKO L621 LIMVI |
| Aircraft | A21N/M-SDE1E2E3FGIJ1J4RWXY/LB1 |
Departure
| Time | 2026-05-07 19:41 |
|---|---|
| Airport | Chişinău International Airport (LUKK) |
Arrival
| Time | N/A |
|---|---|
| Airport | Warsaw Modlin Airport (EPMO) |
| Time | Latitude | Longitude | Altitude | Speed | Heading |
|---|---|---|---|---|---|
| 2026-05-07 19:08 | 46.93203 | 28.93539 | 414 ft | 0 kts | 276° |
| 2026-05-07 19:37 | 46.93204 | 28.93518 | 414 ft | 5 kts | 276° |
| 2026-05-07 19:37 | 46.93206 | 28.93481 | 414 ft | 6 kts | 269° |
| 2026-05-07 19:37 | 46.93165 | 28.93454 | 416 ft | 9 kts | 156° |
| 2026-05-07 19:37 | 46.93141 | 28.93545 | 416 ft | 11 kts | 97° |
| 2026-05-07 19:38 | 46.93131 | 28.93667 | 414 ft | 14 kts | 96° |
| 2026-05-07 19:38 | 46.93120 | 28.93817 | 413 ft | 16 kts | 96° |
| 2026-05-07 19:38 | 46.93105 | 28.93996 | 413 ft | 19 kts | 97° |
| 2026-05-07 19:38 | 46.93087 | 28.94202 | 410 ft | 22 kts | 97° |
| 2026-05-07 19:39 | 46.93067 | 28.94427 | 409 ft | 23 kts | 97° |
| 2026-05-07 19:39 | 46.93046 | 28.94665 | 413 ft | 24 kts | 96° |
| 2026-05-07 19:39 | 46.93026 | 28.94919 | 415 ft | 26 kts | 97° |
| 2026-05-07 19:39 | 46.93002 | 28.95098 | 412 ft | 15 kts | 149° |
| 2026-05-07 19:40 | 46.92915 | 28.95114 | 412 ft | 11 kts | 179° |
| 2026-05-07 19:40 | 46.92842 | 28.95118 | 414 ft | 11 kts | 189° |
| 2026-05-07 19:40 | 46.92818 | 28.94953 | 414 ft | 40 kts | 267° |
| 2026-05-07 19:40 | 46.92802 | 28.94156 | 413 ft | 114 kts | 268° |
| 2026-05-07 19:41 | 46.92771 | 28.92675 | 415 ft | 170 kts | 267° |
| 2026-05-07 19:41 | 46.92760 | 28.90934 | 924 ft | 171 kts | 266° |
| 2026-05-07 19:41 | 46.92692 | 28.89198 | 1568 ft | 175 kts | 259° |
| 2026-05-07 19:41 | 46.92608 | 28.87343 | 2054 ft | 191 kts | 261° |
| 2026-05-07 19:42 | 46.92541 | 28.85250 | 2384 ft | 221 kts | 263° |
| 2026-05-07 19:42 | 46.92480 | 28.82884 | 2876 ft | 244 kts | 264° |
| 2026-05-07 19:42 | 46.92419 | 28.80339 | 3594 ft | 256 kts | 265° |
| 2026-05-07 19:42 | 46.92359 | 28.77710 | 4454 ft | 261 kts | 265° |
| 2026-05-07 19:43 | 46.92293 | 28.75027 | 5333 ft | 265 kts | 265° |
| 2026-05-07 19:43 | 46.92226 | 28.72324 | 6249 ft | 267 kts | 266° |
| 2026-05-07 19:43 | 46.92331 | 28.69598 | 7071 ft | 272 kts | 283° |
| 2026-05-07 19:43 | 46.93109 | 28.67055 | 7874 ft | 277 kts | 299° |
| 2026-05-07 19:44 | 46.93921 | 28.64498 | 8665 ft | 280 kts | 288° |
| 2026-05-07 19:44 | 46.94519 | 28.61765 | 9445 ft | 284 kts | 285° |
| 2026-05-07 19:44 | 46.95096 | 28.58975 | 10176 ft | 290 kts | 285° |
| 2026-05-07 19:44 | 46.95704 | 28.56062 | 10530 ft | 310 kts | 286° |
| 2026-05-07 19:45 | 46.96360 | 28.52948 | 10814 ft | 330 kts | 286° |
| 2026-05-07 19:45 | 46.97068 | 28.49648 | 11079 ft | 350 kts | 286° |
| 2026-05-07 19:45 | 46.97811 | 28.46162 | 11319 ft | 368 kts | 287° |
| 2026-05-07 19:45 | 46.98592 | 28.42498 | 11552 ft | 385 kts | 286° |
| 2026-05-07 19:46 | 46.99398 | 28.38672 | 11799 ft | 401 kts | 285° |
| 2026-05-07 19:46 | 47.00231 | 28.34742 | 12231 ft | 407 kts | 285° |
| 2026-05-07 19:46 | 47.01067 | 28.30763 | 12723 ft | 410 kts | 285° |
| 2026-05-07 19:46 | 47.01920 | 28.26763 | 13244 ft | 413 kts | 285° |
| 2026-05-07 19:47 | 47.02760 | 28.22717 | 13778 ft | 416 kts | 285° |
| 2026-05-07 19:47 | 47.03598 | 28.18638 | 14254 ft | 419 kts | 284° |
| 2026-05-07 19:47 | 47.04449 | 28.14546 | 14753 ft | 421 kts | 285° |
| 2026-05-07 19:47 | 47.05316 | 28.10420 | 15311 ft | 424 kts | 284° |
| 2026-05-07 19:48 | 47.06178 | 28.06271 | 15884 ft | 427 kts | 285° |
| 2026-05-07 19:48 | 47.07039 | 28.02146 | 16419 ft | 430 kts | 284° |
| 2026-05-07 19:48 | 47.07914 | 27.97940 | 16950 ft | 433 kts | 284° |
| 2026-05-07 19:48 | 47.08783 | 27.93692 | 17473 ft | 436 kts | 284° |
| 2026-05-07 19:49 | 47.09665 | 27.89425 | 17984 ft | 439 kts | 285° |
| 2026-05-07 19:49 | 47.10508 | 27.85111 | 18444 ft | 441 kts | 282° |
| 2026-05-07 19:49 | 47.11184 | 27.80714 | 18858 ft | 443 kts | 280° |
| 2026-05-07 19:49 | 47.11837 | 27.76287 | 19337 ft | 444 kts | 279° |
| 2026-05-07 19:50 | 47.12473 | 27.71852 | 19816 ft | 445 kts | 279° |
| 2026-05-07 19:50 | 47.13109 | 27.67385 | 20219 ft | 448 kts | 279° |
| 2026-05-07 19:50 | 47.13755 | 27.62899 | 20584 ft | 451 kts | 280° |
| 2026-05-07 19:50 | 47.14411 | 27.58388 | 21016 ft | 453 kts | 279° |
| 2026-05-07 19:51 | 47.15070 | 27.53848 | 21507 ft | 456 kts | 279° |
| 2026-05-07 19:51 | 47.15736 | 27.49282 | 21990 ft | 458 kts | 280° |
| 2026-05-07 19:51 | 47.16404 | 27.44689 | 22380 ft | 461 kts | 281° |
| 2026-05-07 19:51 | 47.17076 | 27.40074 | 22781 ft | 464 kts | 281° |
| 2026-05-07 19:52 | 47.17746 | 27.35428 | 23153 ft | 467 kts | 281° |
| 2026-05-07 19:52 | 47.18422 | 27.30745 | 23505 ft | 469 kts | 281° |
| 2026-05-07 19:52 | 47.19098 | 27.26034 | 23826 ft | 472 kts | 281° |
| 2026-05-07 19:52 | 47.19771 | 27.21312 | 24103 ft | 473 kts | 281° |
| 2026-05-07 19:53 | 47.20447 | 27.16563 | 24364 ft | 474 kts | 281° |
| 2026-05-07 19:53 | 47.21120 | 27.11813 | 24614 ft | 476 kts | 281° |
| 2026-05-07 19:53 | 47.21793 | 27.07052 | 24907 ft | 476 kts | 281° |
| 2026-05-07 19:53 | 47.22466 | 27.02294 | 25258 ft | 474 kts | 281° |
| 2026-05-07 19:54 | 47.23137 | 26.97549 | 25626 ft | 472 kts | 280° |
| 2026-05-07 19:54 | 47.23800 | 26.92829 | 25973 ft | 471 kts | 280° |
| 2026-05-07 19:54 | 47.24466 | 26.88119 | 26315 ft | 469 kts | 280° |
| 2026-05-07 19:54 | 47.25126 | 26.83434 | 26657 ft | 467 kts | 280° |
| 2026-05-07 19:55 | 47.25776 | 26.78754 | 26999 ft | 466 kts | 280° |
| 2026-05-07 19:55 | 47.26425 | 26.74086 | 27344 ft | 464 kts | 280° |
| 2026-05-07 19:55 | 47.27070 | 26.69432 | 27674 ft | 463 kts | 280° |
| 2026-05-07 19:55 | 47.27713 | 26.64797 | 28007 ft | 462 kts | 280° |
| 2026-05-07 19:56 | 47.28359 | 26.60167 | 28344 ft | 460 kts | 280° |
| 2026-05-07 19:56 | 47.28997 | 26.55560 | 28698 ft | 458 kts | 279° |
| 2026-05-07 19:56 | 47.29625 | 26.50961 | 29013 ft | 457 kts | 279° |
| 2026-05-07 19:56 | 47.30244 | 26.46378 | 29341 ft | 456 kts | 279° |
| 2026-05-07 19:57 | 47.30861 | 26.41805 | 29632 ft | 455 kts | 279° |
| 2026-05-07 19:57 | 47.31476 | 26.37236 | 29917 ft | 454 kts | 279° |
| 2026-05-07 19:57 | 47.32090 | 26.32685 | 30184 ft | 453 kts | 279° |
| 2026-05-07 19:57 | 47.32701 | 26.28143 | 30433 ft | 451 kts | 279° |
| 2026-05-07 19:58 | 47.33308 | 26.23617 | 30699 ft | 449 kts | 279° |
| 2026-05-07 19:58 | 47.33905 | 26.19120 | 30987 ft | 445 kts | 279° |
| 2026-05-07 19:58 | 47.34493 | 26.14657 | 31263 ft | 443 kts | 279° |
| 2026-05-07 19:58 | 47.35081 | 26.10204 | 31496 ft | 442 kts | 279° |
| 2026-05-07 19:59 | 47.35671 | 26.05763 | 31716 ft | 441 kts | 279° |
| 2026-05-07 19:59 | 47.36248 | 26.01390 | 31926 ft | 439 kts | 279° |
| 2026-05-07 19:59 | 47.36833 | 25.96912 | 32144 ft | 438 kts | 279° |
| 2026-05-07 19:59 | 47.37396 | 25.92565 | 32369 ft | 436 kts | 278° |
| 2026-05-07 20:00 | 47.37965 | 25.88118 | 32580 ft | 435 kts | 278° |
| 2026-05-07 20:00 | 47.38526 | 25.83736 | 32789 ft | 434 kts | 278° |
| 2026-05-07 20:00 | 47.39079 | 25.79423 | 32983 ft | 432 kts | 278° |
| 2026-05-07 20:00 | 47.39638 | 25.75074 | 33188 ft | 432 kts | 278° |
| 2026-05-07 20:01 | 47.40202 | 25.70712 | 33322 ft | 432 kts | 278° |
| 2026-05-07 20:01 | 47.40764 | 25.66360 | 33478 ft | 432 kts | 278° |
| 2026-05-07 20:01 | 47.41315 | 25.62006 | 33649 ft | 431 kts | 278° |
| 2026-05-07 20:01 | 47.41874 | 25.57599 | 33815 ft | 430 kts | 278° |
| 2026-05-07 20:02 | 47.42424 | 25.53269 | 33961 ft | 429 kts | 278° |
| 2026-05-07 20:02 | 47.42974 | 25.48937 | 34101 ft | 429 kts | 278° |
| 2026-05-07 20:02 | 47.43519 | 25.44671 | 34227 ft | 428 kts | 278° |
| 2026-05-07 20:02 | 47.44075 | 25.40288 | 34357 ft | 428 kts | 278° |
| 2026-05-07 20:03 | 47.44615 | 25.36028 | 34471 ft | 428 kts | 277° |
| 2026-05-07 20:03 | 47.45158 | 25.31703 | 34577 ft | 428 kts | 278° |
| 2026-05-07 20:03 | 47.45699 | 25.27383 | 34680 ft | 428 kts | 278° |
| 2026-05-07 20:03 | 47.46240 | 25.23057 | 34778 ft | 428 kts | 277° |
| 2026-05-07 20:04 | 47.47310 | 25.14407 | 34978 ft | 428 kts | 277° |
| 2026-05-07 20:04 | 47.47845 | 25.10083 | 35082 ft | 427 kts | 277° |
| 2026-05-07 20:04 | 47.48381 | 25.05764 | 35189 ft | 427 kts | 277° |
| 2026-05-07 20:05 | 47.49444 | 24.97120 | 35349 ft | 428 kts | 277° |
| 2026-05-07 20:05 | 47.50496 | 24.88446 | 35483 ft | 429 kts | 277° |
| 2026-05-07 20:06 | 47.51547 | 24.79733 | 35594 ft | 431 kts | 277° |
| 2026-05-07 20:06 | 47.52591 | 24.71004 | 35750 ft | 431 kts | 277° |
| 2026-05-07 20:07 | 47.53627 | 24.62283 | 35931 ft | 430 kts | 277° |
| 2026-05-07 20:07 | 47.54650 | 24.53565 | 36068 ft | 431 kts | 277° |
| 2026-05-07 20:08 | 47.55678 | 24.44811 | 36051 ft | 432 kts | 277° |
| 2026-05-07 20:08 | 47.56704 | 24.36047 | 36044 ft | 432 kts | 276° |
| 2026-05-07 20:09 | 47.57719 | 24.27279 | 36043 ft | 432 kts | 276° |
| 2026-05-07 20:10 | 47.59216 | 24.14113 | 36040 ft | 432 kts | 276° |
| 2026-05-07 20:10 | 47.60223 | 24.05305 | 36053 ft | 435 kts | 276° |
| 2026-05-07 20:11 | 47.61224 | 23.96460 | 36046 ft | 436 kts | 276° |
| 2026-05-07 20:11 | 47.62219 | 23.87607 | 36046 ft | 435 kts | 276° |
| 2026-05-07 20:12 | 47.63189 | 23.78807 | 36050 ft | 435 kts | 276° |
| 2026-05-07 20:12 | 47.64171 | 23.69964 | 36068 ft | 435 kts | 276° |
| 2026-05-07 20:13 | 47.65144 | 23.61100 | 36054 ft | 435 kts | 276° |
| 2026-05-07 20:13 | 47.66109 | 23.52235 | 36054 ft | 435 kts | 276° |
| 2026-05-07 20:14 | 47.67060 | 23.43365 | 36038 ft | 435 kts | 276° |
| 2026-05-07 20:14 | 47.68010 | 23.34501 | 36040 ft | 435 kts | 276° |
| 2026-05-07 20:15 | 47.68958 | 23.25631 | 36058 ft | 435 kts | 276° |
| 2026-05-07 20:15 | 47.69897 | 23.16761 | 36048 ft | 435 kts | 276° |
| 2026-05-07 20:16 | 47.70824 | 23.07890 | 36051 ft | 435 kts | 275° |
| 2026-05-07 20:16 | 47.71743 | 22.99021 | 36053 ft | 435 kts | 275° |
| 2026-05-07 20:17 | 47.73330 | 22.90327 | 36052 ft | 444 kts | 291° |
| 2026-05-07 20:17 | 47.74920 | 22.86366 | 36069 ft | 451 kts | 302° |
| 2026-05-07 20:17 | 47.77011 | 22.82843 | 36064 ft | 457 kts | 310° |
| 2026-05-07 20:18 | 47.81511 | 22.76184 | 36032 ft | 456 kts | 310° |
| 2026-05-07 20:18 | 47.85986 | 22.69495 | 36027 ft | 456 kts | 310° |
| 2026-05-07 20:19 | 47.90441 | 22.62782 | 36023 ft | 456 kts | 310° |
| 2026-05-07 20:19 | 47.94892 | 22.56043 | 36037 ft | 457 kts | 310° |
| 2026-05-07 20:20 | 47.99360 | 22.49265 | 36022 ft | 458 kts | 310° |
| 2026-05-07 20:20 | 48.03829 | 22.42470 | 36017 ft | 458 kts | 309° |
| 2026-05-07 20:21 | 48.08286 | 22.35665 | 36022 ft | 458 kts | 309° |
| 2026-05-07 20:21 | 48.12745 | 22.28848 | 36039 ft | 458 kts | 309° |
| 2026-05-07 20:22 | 48.17213 | 22.22000 | 36017 ft | 460 kts | 309° |
| 2026-05-07 20:22 | 48.20917 | 22.16292 | 36016 ft | 460 kts | 309° |
| 2026-05-07 20:23 | 48.26112 | 22.08298 | 36000 ft | 460 kts | 309° |
| 2026-05-07 20:23 | 48.30570 | 22.01414 | 36001 ft | 460 kts | 309° |
| 2026-05-07 20:24 | 48.35218 | 21.94759 | 35999 ft | 469 kts | 319° |
| 2026-05-07 20:24 | 48.40182 | 21.91085 | 36002 ft | 483 kts | 339° |
| 2026-05-07 20:25 | 48.46653 | 21.88565 | 36005 ft | 483 kts | 342° |
| 2026-05-07 20:25 | 48.53166 | 21.86057 | 36000 ft | 483 kts | 341° |
| 2026-05-07 20:26 | 48.59670 | 21.83486 | 35997 ft | 483 kts | 341° |
| 2026-05-07 20:26 | 48.66172 | 21.80916 | 35996 ft | 483 kts | 341° |
| 2026-05-07 20:27 | 48.72689 | 21.78398 | 35997 ft | 484 kts | 343° |
| 2026-05-07 20:27 | 48.79258 | 21.76101 | 35997 ft | 484 kts | 343° |
| 2026-05-07 20:28 | 48.85812 | 21.73789 | 35993 ft | 484 kts | 343° |
| 2026-05-07 20:28 | 48.92375 | 21.71461 | 35988 ft | 484 kts | 343° |
| 2026-05-07 20:29 | 48.98942 | 21.69129 | 35985 ft | 484 kts | 343° |
| 2026-05-07 20:29 | 49.05497 | 21.66797 | 35981 ft | 484 kts | 343° |
| 2026-05-07 20:30 | 49.12062 | 21.64450 | 35989 ft | 485 kts | 343° |
| 2026-05-07 20:30 | 49.18634 | 21.62069 | 35982 ft | 485 kts | 343° |
| 2026-05-07 20:31 | 49.25158 | 21.59719 | 35981 ft | 485 kts | 343° |
| 2026-05-07 20:31 | 49.31729 | 21.57344 | 35981 ft | 485 kts | 343° |
| 2026-05-07 20:32 | 49.38304 | 21.54965 | 35980 ft | 485 kts | 343° |
| 2026-05-07 20:32 | 49.44875 | 21.52565 | 35980 ft | 485 kts | 343° |
| 2026-05-07 20:33 | 49.51454 | 21.50167 | 35995 ft | 487 kts | 342° |
| 2026-05-07 20:33 | 49.58057 | 21.47741 | 35984 ft | 488 kts | 342° |
| 2026-05-07 20:34 | 49.64674 | 21.45358 | 35979 ft | 488 kts | 342° |
| 2026-05-07 20:34 | 49.71285 | 21.42932 | 35976 ft | 488 kts | 342° |
| 2026-05-07 20:35 | 49.77896 | 21.40505 | 35982 ft | 488 kts | 342° |
| 2026-05-07 20:35 | 49.84509 | 21.38068 | 35979 ft | 489 kts | 342° |
| 2026-05-07 20:36 | 49.91124 | 21.35630 | 36011 ft | 489 kts | 342° |
| 2026-05-07 20:36 | 49.97755 | 21.33200 | 35990 ft | 490 kts | 342° |
| 2026-05-07 20:37 | 50.04381 | 21.30749 | 35974 ft | 489 kts | 342° |
| 2026-05-07 20:37 | 50.11006 | 21.28288 | 35976 ft | 489 kts | 342° |
| 2026-05-07 20:38 | 50.17625 | 21.25815 | 35982 ft | 489 kts | 342° |
| 2026-05-07 20:38 | 50.24236 | 21.23336 | 35980 ft | 489 kts | 342° |
| 2026-05-07 20:39 | 50.30850 | 21.20850 | 35970 ft | 489 kts | 342° |
| 2026-05-07 20:39 | 50.37467 | 21.18348 | 35986 ft | 490 kts | 342° |
| 2026-05-07 20:40 | 50.44052 | 21.15866 | 35978 ft | 490 kts | 342° |
| 2026-05-07 20:40 | 50.50678 | 21.13350 | 35977 ft | 490 kts | 342° |
| 2026-05-07 20:41 | 50.57310 | 21.10830 | 35977 ft | 490 kts | 342° |
| 2026-05-07 20:41 | 50.63937 | 21.08301 | 35980 ft | 490 kts | 342° |
| 2026-05-07 20:42 | 50.70613 | 21.05755 | 35982 ft | 490 kts | 342° |
| 2026-05-07 20:42 | 50.77202 | 21.03223 | 36012 ft | 492 kts | 342° |
| 2026-05-07 20:43 | 50.83856 | 21.00664 | 35976 ft | 490 kts | 342° |
| 2026-05-07 20:43 | 50.87158 | 20.99396 | 35109 ft | 491 kts | 342° |
| 2026-05-07 20:43 | 50.90502 | 20.98099 | 33943 ft | 498 kts | 342° |
| 2026-05-07 20:43 | 50.93883 | 20.96789 | 32784 ft | 501 kts | 342° |
| 2026-05-07 20:44 | 50.97282 | 20.95474 | 31665 ft | 503 kts | 343° |
| 2026-05-07 20:44 | 51.00687 | 20.94150 | 30630 ft | 505 kts | 343° |
| 2026-05-07 20:44 | 51.04108 | 20.92822 | 29505 ft | 508 kts | 343° |
| 2026-05-07 20:44 | 51.07546 | 20.91489 | 28346 ft | 509 kts | 343° |
| 2026-05-07 20:45 | 51.10983 | 20.90153 | 27229 ft | 509 kts | 343° |
| 2026-05-07 20:45 | 51.14426 | 20.88803 | 26125 ft | 509 kts | 343° |
| 2026-05-07 20:45 | 51.17861 | 20.87465 | 25102 ft | 508 kts | 343° |
| 2026-05-07 20:45 | 51.21274 | 20.86136 | 24375 ft | 501 kts | 343° |
| 2026-05-07 20:46 | 51.24625 | 20.84820 | 23660 ft | 492 kts | 343° |
| 2026-05-07 20:46 | 51.27928 | 20.83521 | 22804 ft | 485 kts | 344° |
| 2026-05-07 20:46 | 51.31181 | 20.82241 | 22155 ft | 484 kts | 344° |
| 2026-05-07 20:46 | 51.34485 | 20.80938 | 21705 ft | 491 kts | 344° |
| 2026-05-07 20:47 | 51.37789 | 20.79634 | 21240 ft | 485 kts | 344° |
| 2026-05-07 20:47 | 51.41019 | 20.78362 | 20600 ft | 471 kts | 344° |
| 2026-05-07 20:47 | 51.44150 | 20.77127 | 19961 ft | 456 kts | 344° |
| 2026-05-07 20:47 | 51.47190 | 20.75924 | 19356 ft | 447 kts | 344° |
| 2026-05-07 20:48 | 51.50195 | 20.74730 | 18724 ft | 443 kts | 344° |
| 2026-05-07 20:48 | 51.53122 | 20.73567 | 17995 ft | 435 kts | 344° |
| 2026-05-07 20:48 | 51.56036 | 20.72406 | 17221 ft | 427 kts | 344° |
| 2026-05-07 20:48 | 51.58908 | 20.71266 | 16578 ft | 423 kts | 344° |
| 2026-05-07 20:49 | 51.61742 | 20.70137 | 15985 ft | 417 kts | 344° |
| 2026-05-07 20:49 | 51.64546 | 20.69016 | 15437 ft | 413 kts | 343° |
| 2026-05-07 20:49 | 51.67316 | 20.67911 | 14880 ft | 408 kts | 343° |
| 2026-05-07 20:49 | 51.70056 | 20.66813 | 14407 ft | 404 kts | 343° |
| 2026-05-07 20:50 | 51.72770 | 20.65727 | 13972 ft | 400 kts | 344° |
| 2026-05-07 20:50 | 51.75455 | 20.64652 | 13494 ft | 396 kts | 344° |
| 2026-05-07 20:50 | 51.78118 | 20.63583 | 12920 ft | 392 kts | 344° |
| 2026-05-07 20:50 | 51.80753 | 20.62530 | 12376 ft | 388 kts | 344° |
| 2026-05-07 20:51 | 51.83338 | 20.61488 | 11847 ft | 374 kts | 344° |
| 2026-05-07 20:51 | 51.85791 | 20.60500 | 11501 ft | 353 kts | 344° |
| 2026-05-07 20:51 | 51.88106 | 20.59567 | 11220 ft | 332 kts | 344° |
| 2026-05-07 20:51 | 51.90283 | 20.58684 | 10972 ft | 312 kts | 343° |
| 2026-05-07 20:52 | 51.92324 | 20.57852 | 10746 ft | 294 kts | 343° |
| 2026-05-07 20:52 | 51.94258 | 20.57072 | 10451 ft | 279 kts | 343° |
| 2026-05-07 20:52 | 51.96109 | 20.56317 | 10189 ft | 273 kts | 343° |
| 2026-05-07 20:52 | 51.97945 | 20.55567 | 9855 ft | 271 kts | 343° |
| 2026-05-07 20:53 | 51.99768 | 20.54824 | 9454 ft | 269 kts | 343° |
| 2026-05-07 20:53 | 52.01579 | 20.54083 | 9067 ft | 267 kts | 343° |
| 2026-05-07 20:53 | 52.03372 | 20.53355 | 8683 ft | 265 kts | 343° |
| 2026-05-07 20:53 | 52.05150 | 20.52629 | 8345 ft | 263 kts | 343° |
| 2026-05-07 20:54 | 52.06918 | 20.51907 | 8002 ft | 262 kts | 343° |
| 2026-05-07 20:54 | 52.08685 | 20.51196 | 7668 ft | 260 kts | 343° |
| 2026-05-07 20:54 | 52.10434 | 20.50491 | 7330 ft | 258 kts | 343° |
| 2026-05-07 20:54 | 52.12171 | 20.49789 | 6986 ft | 256 kts | 343° |
| 2026-05-07 20:55 | 52.13896 | 20.49087 | 6638 ft | 254 kts | 343° |
| 2026-05-07 20:55 | 52.15607 | 20.48388 | 6290 ft | 253 kts | 343° |
| 2026-05-07 20:55 | 52.17303 | 20.47695 | 5943 ft | 251 kts | 343° |
| 2026-05-07 20:55 | 52.18996 | 20.46998 | 5588 ft | 250 kts | 343° |
| 2026-05-07 20:56 | 52.20677 | 20.46307 | 5265 ft | 249 kts | 343° |
| 2026-05-07 20:56 | 52.22351 | 20.45624 | 4948 ft | 247 kts | 344° |
| 2026-05-07 20:56 | 52.24017 | 20.44949 | 4590 ft | 246 kts | 344° |
| 2026-05-07 20:56 | 52.25672 | 20.44277 | 4244 ft | 245 kts | 344° |
| 2026-05-07 20:57 | 52.27317 | 20.43601 | 3903 ft | 242 kts | 344° |
| 2026-05-07 20:57 | 52.28902 | 20.42949 | 3648 ft | 227 kts | 344° |
| 2026-05-07 20:57 | 52.30371 | 20.42342 | 3447 ft | 209 kts | 345° |
| 2026-05-07 20:57 | 52.31725 | 20.41788 | 3230 ft | 191 kts | 345° |
| 2026-05-07 20:58 | 52.32953 | 20.41293 | 3103 ft | 173 kts | 346° |
| 2026-05-07 20:58 | 52.34057 | 20.40828 | 2954 ft | 156 kts | 346° |
| 2026-05-07 20:58 | 52.35102 | 20.40387 | 2940 ft | 155 kts | 346° |
| 2026-05-07 20:58 | 52.36149 | 20.39962 | 2957 ft | 155 kts | 346° |
| 2026-05-07 20:59 | 52.37195 | 20.39528 | 2971 ft | 155 kts | 346° |
| 2026-05-07 20:59 | 52.38241 | 20.39087 | 2977 ft | 155 kts | 345° |
| 2026-05-07 20:59 | 52.39273 | 20.38655 | 2979 ft | 155 kts | 346° |
| 2026-05-07 20:59 | 52.40319 | 20.38221 | 2980 ft | 155 kts | 346° |
| 2026-05-07 21:00 | 52.41366 | 20.37803 | 2983 ft | 155 kts | 349° |
| 2026-05-07 21:00 | 52.42412 | 20.38005 | 2968 ft | 155 kts | 34° |
| 2026-05-07 21:00 | 52.42933 | 20.39498 | 2974 ft | 156 kts | 89° |
| 2026-05-07 21:00 | 52.42866 | 20.41255 | 2992 ft | 157 kts | 88° |
| 2026-05-07 21:01 | 52.43002 | 20.43040 | 2876 ft | 156 kts | 76° |
| 2026-05-07 21:01 | 52.43183 | 20.44746 | 2697 ft | 148 kts | 79° |
| 2026-05-07 21:01 | 52.43396 | 20.46343 | 1948 ft | 156 kts | 75° |
| 2026-05-07 21:01 | 52.43615 | 20.47663 | 900 ft | 197 kts | 72° |